Time;durP1;ratioP1;P1;durP2;ratioP2;P2;SDS_P1;SDS_P2;PMS_P1;PMS_P2;Temp;Humidity;BMP_temperature;BMP_pressure;BME280_temperature;BME280_humidity;BME280_pressure;Samples;Min_cycle;Max_cycle;Signal;HPM_P1;HPM_P2
2022/02/25 00:00:32;;;;;;;4.37;0.87;;;;;;;;;;5046122;28;20627;-67
2022/02/25 00:02:58;;;;;;;3.20;1.20;;;;;;;;;;5037285;28;20236;-67
2022/02/25 00:05:23;;;;;;;5.77;1.37;;;;;;;;;;5050273;28;20660;-67
2022/02/25 00:07:48;;;;;;;3.73;1.00;;;;;;;;;;5048648;28;20189;-67
2022/02/25 00:10:14;;;;;;;6.67;1.30;;;;;;;;;;5052268;28;20470;-67
2022/02/25 00:12:40;;;;;;;5.50;1.37;;;;;;;;;;5046246;28;20229;-67
2022/02/25 00:15:06;;;;;;;6.20;1.20;;;;;;;;;;5044306;28;20438;-67
2022/02/25 00:17:31;;;;;;;1.77;1.00;;;;;;;;;;5043386;28;20694;-67
2022/02/25 00:19:56;;;;;;;5.53;1.50;;;;;;;;;;5050326;28;20226;-66
2022/02/25 00:22:22;;;;;;;6.10;1.13;;;;;;;;;;5034105;28;20239;-67
2022/02/25 00:24:47;;;;;;;9.37;1.50;;;;;;;;;;5045022;28;20278;-66
2022/02/25 00:27:13;;;;;;;2.97;1.13;;;;;;;;;;5039093;28;20553;-67
2022/02/25 00:29:38;;;;;;;4.77;1.47;;;;;;;;;;5053147;28;20193;-66
2022/02/25 00:32:04;;;;;;;4.10;1.27;;;;;;;;;;5042830;28;20218;-66
2022/02/25 00:34:29;;;;;;;5.37;1.57;;;;;;;;;;5044214;28;20210;-67
2022/02/25 00:36:55;;;;;;;7.73;1.70;;;;;;;;;;5046344;28;20255;-66
2022/02/25 00:39:20;;;;;;;9.40;1.53;;;;;;;;;;5044479;28;20220;-66
2022/02/25 00:41:45;;;;;;;3.57;1.23;;;;;;;;;;5042708;28;20215;-66
2022/02/25 00:44:11;;;;;;;8.13;1.27;;;;;;;;;;5042286;28;20221;-67
2022/02/25 00:46:36;;;;;;;6.63;1.00;;;;;;;;;;5045195;28;20721;-66
2022/02/25 00:49:02;;;;;;;7.47;1.47;;;;;;;;;;5043585;28;20199;-67
2022/02/25 00:51:27;;;;;;;7.10;1.20;;;;;;;;;;5043657;28;20186;-66
2022/02/25 00:53:53;;;;;;;2.73;1.07;;;;;;;;;;5045553;28;20197;-66
2022/02/25 00:56:18;;;;;;;7.07;1.00;;;;;;;;;;5043622;28;20248;-66
2022/02/25 00:58:44;;;;;;;4.30;0.80;;;;;;;;;;5050520;28;20609;-67
2022/02/25 01:01:09;;;;;;;6.80;1.20;;;;;;;;;;5041137;28;20200;-67
2022/02/25 01:03:35;;;;;;;7.60;1.43;;;;;;;;;;5039887;28;20587;-66
2022/02/25 01:06:01;;;;;;;3.90;1.10;;;;;;;;;;5043098;28;20201;-66
2022/02/25 01:08:26;;;;;;;5.47;1.30;;;;;;;;;;5048544;28;20194;-66
2022/02/25 01:10:51;;;;;;;6.40;0.80;;;;;;;;;;5044111;28;20688;-66
2022/02/25 01:13:17;;;;;;;4.30;1.10;;;;;;;;;;5044417;28;20477;-66
2022/02/25 01:15:42;;;;;;;5.30;0.90;;;;;;;;;;5041653;28;20234;-65
2022/02/25 01:18:08;;;;;;;4.23;1.10;;;;;;;;;;5044983;28;20208;-66
2022/02/25 01:20:33;;;;;;;5.00;1.10;;;;;;;;;;5043182;28;20204;-66
2022/02/25 01:22:59;;;;;;;5.00;0.90;;;;;;;;;;5046989;28;20211;-67
2022/02/25 01:25:25;;;;;;;3.93;1.00;;;;;;;;;;5044235;28;20181;-67
2022/02/25 01:27:51;;;;;;;4.07;1.13;;;;;;;;;;5036021;28;20227;-67
2022/02/25 01:30:16;;;;;;;3.70;0.77;;;;;;;;;;5038446;28;20209;-67
2022/02/25 01:32:41;;;;;;;4.30;1.77;;;;;;;;;;5043599;28;20239;-67
2022/02/25 01:35:08;;;;;;;3.80;1.00;;;;;;;;;;5042289;28;20209;-66
2022/02/25 01:37:33;;;;;;;2.60;0.97;;;;;;;;;;5043839;28;20270;-66
2022/02/25 01:39:59;;;;;;;8.07;1.50;;;;;;;;;;5051634;28;20349;-67
2022/02/25 01:42:24;;;;;;;3.93;0.87;;;;;;;;;;5044396;28;20263;-67
2022/02/25 01:44:50;;;;;;;4.60;0.83;;;;;;;;;;5045571;28;20204;-67
2022/02/25 01:47:15;;;;;;;5.23;0.93;;;;;;;;;;5043215;28;20699;-66
2022/02/25 01:49:42;;;;;;;6.10;1.47;;;;;;;;;;5038187;28;20591;-66
2022/02/25 01:52:13;;;;;;;7.53;1.30;;;;;;;;;;5047530;28;20347;-66
2022/02/25 01:54:41;;;;;;;3.67;1.07;;;;;;;;;;5038178;28;20221;-67
2022/02/25 01:57:10;;;;;;;7.07;1.10;;;;;;;;;;5042501;28;20196;-66
2022/02/25 01:59:37;;;;;;;10.13;1.30;;;;;;;;;;5044013;28;20664;-66
2022/02/25 02:02:03;;;;;;;8.43;1.30;;;;;;;;;;5042395;28;20279;-67
2022/02/25 02:04:28;;;;;;;5.47;1.03;;;;;;;;;;5038494;28;20204;-66
2022/02/25 02:06:53;;;;;;;6.50;1.73;;;;;;;;;;5042370;28;20208;-66
2022/02/25 02:09:19;;;;;;;5.37;1.00;;;;;;;;;;5036398;28;20205;-66
2022/02/25 02:11:47;;;;;;;9.43;1.20;;;;;;;;;;5044399;28;20192;-66
2022/02/25 02:14:16;;;;;;;6.40;1.10;;;;;;;;;;5044522;28;20283;-67
2022/02/25 02:16:42;;;;;;;6.23;1.53;;;;;;;;;;5043531;28;20520;-66
2022/02/25 02:19:08;;;;;;;6.97;1.30;;;;;;;;;;5038189;28;20189;-66
2022/02/25 02:21:38;;;;;;;6.33;1.30;;;;;;;;;;5042385;28;20259;-67
2022/02/25 02:24:04;;;;;;;12.07;1.60;;;;;;;;;;5039220;28;20234;-67
2022/02/25 02:26:29;;;;;;;4.90;1.20;;;;;;;;;;5045827;28;20181;-66
2022/02/25 02:28:55;;;;;;;7.40;1.10;;;;;;;;;;5040402;28;20185;-66
2022/02/25 02:31:20;;;;;;;7.03;1.13;;;;;;;;;;5042186;28;20550;-66
2022/02/25 02:33:46;;;;;;;4.47;1.13;;;;;;;;;;5045566;28;20653;-66
2022/02/25 02:36:12;;;;;;;8.27;1.30;;;;;;;;;;5040757;28;20625;-66
2022/02/25 02:38:38;;;;;;;5.77;1.40;;;;;;;;;;5045043;28;20258;-65
2022/02/25 02:41:05;;;;;;;7.90;1.20;;;;;;;;;;5040254;28;20196;-65
2022/02/25 02:43:31;;;;;;;5.40;0.93;;;;;;;;;;5043770;28;20185;-65
2022/02/25 02:45:57;;;;;;;7.67;0.93;;;;;;;;;;5040528;28;20688;-65
2022/02/25 02:48:22;;;;;;;7.27;1.47;;;;;;;;;;5038760;28;20285;-66
2022/02/25 02:50:47;;;;;;;7.17;1.00;;;;;;;;;;5041055;28;20190;-66
2022/02/25 02:53:14;;;;;;;8.47;1.27;;;;;;;;;;5041023;28;20241;-66
2022/02/25 02:55:40;;;;;;;8.53;0.87;;;;;;;;;;5041299;28;20193;-66
2022/02/25 02:58:07;;;;;;;8.23;1.13;;;;;;;;;;5046447;28;20189;-66
2022/02/25 03:00:32;;;;;;;6.50;1.20;;;;;;;;;;5043432;28;20255;-66
2022/02/25 03:02:57;;;;;;;8.43;1.30;;;;;;;;;;5034351;28;20607;-66
2022/02/25 03:05:23;;;;;;;8.57;1.20;;;;;;;;;;5040251;28;20235;-66
2022/02/25 03:07:48;;;;;;;9.03;1.17;;;;;;;;;;5043284;28;20577;-66
2022/02/25 03:10:15;;;;;;;10.80;2.37;;;;;;;;;;5045207;28;20220;-66
2022/02/25 03:12:41;;;;;;;5.00;1.10;;;;;;;;;;5046006;28;20241;-66
2022/02/25 03:15:07;;;;;;;5.67;1.53;;;;;;;;;;5047296;28;20206;-66
2022/02/25 03:17:33;;;;;;;9.37;1.30;;;;;;;;;;5049811;28;20272;-67
2022/02/25 03:20:00;;;;;;;4.40;1.10;;;;;;;;;;5043087;28;20276;-66
2022/02/25 03:22:26;;;;;;;8.47;1.27;;;;;;;;;;5046638;28;20277;-66
2022/02/25 03:24:53;;;;;;;7.30;1.10;;;;;;;;;;5047519;28;20276;-66
2022/02/25 03:27:18;;;;;;;12.03;1.80;;;;;;;;;;5045625;28;20204;-67
2022/02/25 03:29:44;;;;;;;9.27;1.80;;;;;;;;;;5049584;28;20184;-66
2022/02/25 03:32:09;;;;;;;14.10;1.70;;;;;;;;;;5042477;28;20283;-66
2022/02/25 03:34:35;;;;;;;13.30;2.17;;;;;;;;;;5044421;28;20296;-66
2022/02/25 03:37:00;;;;;;;10.83;1.93;;;;;;;;;;5043826;28;20565;-66
2022/02/25 03:39:25;;;;;;;5.87;1.37;;;;;;;;;;5049787;28;20265;-66
2022/02/25 03:41:51;;;;;;;6.87;2.03;;;;;;;;;;5047747;28;20185;-66
2022/02/25 03:44:16;;;;;;;7.33;2.33;;;;;;;;;;5042300;28;20697;-67
2022/02/25 03:46:42;;;;;;;9.77;1.60;;;;;;;;;;5046027;28;20188;-66
2022/02/25 03:49:07;;;;;;;6.70;2.70;;;;;;;;;;5046206;28;20220;-66
2022/02/25 03:51:33;;;;;;;8.80;2.03;;;;;;;;;;5049437;28;20177;-66
2022/02/25 03:53:58;;;;;;;6.03;2.50;;;;;;;;;;5046441;28;20681;-66
2022/02/25 03:56:23;;;;;;;6.23;2.63;;;;;;;;;;5042449;28;20177;-66
2022/02/25 03:58:49;;;;;;;10.47;2.60;;;;;;;;;;5039564;28;20190;-66
2022/02/25 04:01:14;;;;;;;13.70;2.87;;;;;;;;;;5043464;28;20189;-66
2022/02/25 04:03:39;;;;;;;11.47;2.40;;;;;;;;;;5046577;28;20182;-66
2022/02/25 04:06:05;;;;;;;7.30;2.50;;;;;;;;;;5041424;28;20256;-66
2022/02/25 04:08:31;;;;;;;8.77;2.87;;;;;;;;;;5044257;28;20551;-66
2022/02/25 04:10:56;;;;;;;10.30;3.00;;;;;;;;;;5046214;28;20312;-66
2022/02/25 04:13:21;;;;;;;7.13;2.70;;;;;;;;;;5047826;28;20260;-66
2022/02/25 04:15:47;;;;;;;8.77;3.20;;;;;;;;;;5045727;28;20205;-67
2022/02/25 04:18:12;;;;;;;11.17;3.33;;;;;;;;;;5046819;28;20549;-66
2022/02/25 04:20:37;;;;;;;9.10;3.40;;;;;;;;;;5045274;28;20610;-66
2022/02/25 04:23:03;;;;;;;14.93;2.97;;;;;;;;;;5043691;28;20270;-65
2022/02/25 04:25:29;;;;;;;10.10;3.87;;;;;;;;;;5044504;28;20194;-65
2022/02/25 04:27:55;;;;;;;9.33;3.53;;;;;;;;;;5042096;28;20239;-66
2022/02/25 04:30:21;;;;;;;9.13;3.57;;;;;;;;;;5044916;28;20209;-66
2022/02/25 04:32:48;;;;;;;11.63;3.47;;;;;;;;;;5046397;28;20181;-66
2022/02/25 04:35:13;;;;;;;10.33;4.10;;;;;;;;;;5044513;28;20205;-66
2022/02/25 04:37:39;;;;;;;7.00;2.67;;;;;;;;;;5047178;28;20200;-66
2022/02/25 04:40:05;;;;;;;10.87;3.80;;;;;;;;;;5043785;28;20275;-66
2022/02/25 04:42:31;;;;;;;10.83;3.90;;;;;;;;;;5044976;28;20186;-65
2022/02/25 04:44:56;;;;;;;7.67;3.47;;;;;;;;;;5044765;28;20186;-66
2022/02/25 04:47:22;;;;;;;12.87;4.83;;;;;;;;;;5046171;28;20196;-66
2022/02/25 04:49:47;;;;;;;7.57;3.97;;;;;;;;;;5039977;28;20213;-65
2022/02/25 04:52:13;;;;;;;8.93;4.30;;;;;;;;;;5042047;28;20279;-66
2022/02/25 04:54:39;;;;;;;7.93;4.23;;;;;;;;;;5040140;28;20217;-65
2022/02/25 04:57:04;;;;;;;11.67;4.00;;;;;;;;;;5042763;28;20189;-66
2022/02/25 04:59:30;;;;;;;14.10;3.93;;;;;;;;;;5042897;28;20292;-66
2022/02/25 05:01:55;;;;;;;12.20;4.40;;;;;;;;;;5042426;28;20182;-66
2022/02/25 05:04:20;;;;;;;15.77;4.37;;;;;;;;;;5042232;28;20239;-66
2022/02/25 05:06:46;;;;;;;16.23;3.97;;;;;;;;;;5049915;28;20641;-65
2022/02/25 05:09:11;;;;;;;10.00;3.63;;;;;;;;;;5042856;28;20197;-65
2022/02/25 05:11:37;;;;;;;9.93;3.97;;;;;;;;;;5048664;28;20186;-66
2022/02/25 05:14:02;;;;;;;12.80;3.83;;;;;;;;;;5030820;28;20263;-65
2022/02/25 05:21:55;;;;;;;8.90;3.10;;;;;;;;;;5037703;28;20265;-65
2022/02/25 05:24:21;;;;;;;12.10;2.93;;;;;;;;;;5040172;28;20289;-65
2022/02/25 05:26:46;;;;;;;7.60;3.47;;;;;;;;;;5047185;28;20641;-65
2022/02/25 05:29:11;;;;;;;11.90;3.60;;;;;;;;;;5042070;28;20721;-66
2022/02/25 05:31:37;;;;;;;11.40;3.03;;;;;;;;;;5041100;28;20288;-65
2022/02/25 05:34:03;;;;;;;13.07;3.33;;;;;;;;;;5041622;28;20209;-65
2022/02/25 05:36:28;;;;;;;12.90;3.17;;;;;;;;;;5032878;28;20247;-66
2022/02/25 05:38:55;;;;;;;11.83;3.47;;;;;;;;;;5043050;28;20183;-65
2022/02/25 05:41:21;;;;;;;12.60;3.67;;;;;;;;;;5040279;28;20600;-65
2022/02/25 05:43:46;;;;;;;15.47;4.07;;;;;;;;;;5043505;28;20224;-66
2022/02/25 05:46:12;;;;;;;14.83;3.30;;;;;;;;;;5046827;28;20606;-65
2022/02/25 05:48:37;;;;;;;7.70;3.20;;;;;;;;;;5045938;28;20247;-66
2022/02/25 05:51:03;;;;;;;13.93;3.50;;;;;;;;;;5045447;28;20208;-65
2022/02/25 05:53:28;;;;;;;11.80;2.97;;;;;;;;;;5052273;28;20299;-65
2022/02/25 05:55:54;;;;;;;9.37;2.77;;;;;;;;;;5043452;28;20197;-65
2022/02/25 05:58:19;;;;;;;14.07;3.20;;;;;;;;;;5044600;28;20181;-66
2022/02/25 06:00:45;;;;;;;11.43;2.77;;;;;;;;;;5044087;28;20665;-66
2022/02/25 06:03:10;;;;;;;14.60;3.70;;;;;;;;;;5043411;28;20263;-66
2022/02/25 06:05:35;;;;;;;9.60;2.63;;;;;;;;;;5045147;28;20280;-67
2022/02/25 06:08:01;;;;;;;6.30;2.67;;;;;;;;;;5052141;28;20556;-67
2022/02/25 06:10:26;;;;;;;13.33;3.47;;;;;;;;;;5043942;28;20280;-66
2022/02/25 06:12:52;;;;;;;10.23;2.63;;;;;;;;;;5051332;28;20228;-66
2022/02/25 06:15:17;;;;;;;11.77;2.63;;;;;;;;;;5043837;28;20211;-66
2022/02/25 06:17:50;;;;;;;10.07;2.70;;;;;;;;;;5047043;28;20264;-66
2022/02/25 06:20:17;;;;;;;13.63;2.70;;;;;;;;;;5042836;28;20190;-66
2022/02/25 06:22:44;;;;;;;12.67;3.10;;;;;;;;;;5038677;28;20590;-65
2022/02/25 06:25:10;;;;;;;8.97;2.87;;;;;;;;;;5041918;28;20239;-65
2022/02/25 06:27:38;;;;;;;16.10;3.13;;;;;;;;;;5049192;28;20193;-66
2022/02/25 06:30:08;;;;;;;16.70;2.87;;;;;;;;;;5041969;28;20267;-66
2022/02/25 06:32:33;;;;;;;14.50;3.17;;;;;;;;;;5036893;28;20193;-66
2022/02/25 06:34:59;;;;;;;15.60;3.07;;;;;;;;;;5043249;28;20739;-66
2022/02/25 06:37:27;;;;;;;16.37;2.70;;;;;;;;;;5044272;28;20563;-66
2022/02/25 06:39:52;;;;;;;17.30;3.37;;;;;;;;;;5043391;28;20192;-66
2022/02/25 06:42:17;;;;;;;11.70;2.90;;;;;;;;;;5040811;28;20548;-67
2022/02/25 06:44:43;;;;;;;10.17;2.67;;;;;;;;;;5042226;28;20637;-66
2022/02/25 06:47:08;;;;;;;18.60;3.10;;;;;;;;;;5044121;28;20259;-66
2022/02/25 06:49:34;;;;;;;11.53;2.60;;;;;;;;;;5054897;28;20192;-66
2022/02/25 06:51:59;;;;;;;12.43;2.43;;;;;;;;;;5044332;28;20193;-66
2022/02/25 06:54:24;;;;;;;13.33;2.90;;;;;;;;;;5059924;28;20200;-67
2022/02/25 06:56:50;;;;;;;7.23;2.57;;;;;;;;;;5045905;28;20560;-67
2022/02/25 06:59:15;;;;;;;8.53;1.97;;;;;;;;;;5056588;28;20650;-66
2022/02/25 07:01:40;;;;;;;11.83;2.80;;;;;;;;;;5048597;28;20196;-66
2022/02/25 07:04:06;;;;;;;9.57;3.30;;;;;;;;;;5062557;28;20205;-66
2022/02/25 07:06:33;;;;;;;19.80;3.13;;;;;;;;;;5044536;28;20524;-66
2022/02/25 07:08:58;;;;;;;22.73;3.17;;;;;;;;;;5056606;28;20506;-66
2022/02/25 07:11:23;;;;;;;12.00;2.57;;;;;;;;;;5046264;28;20193;-66
2022/02/25 07:13:48;;;;;;;9.30;2.17;;;;;;;;;;5052109;28;20240;-66
2022/02/25 07:16:14;;;;;;;11.33;2.80;;;;;;;;;;5050348;28;20180;-66
2022/02/25 07:18:39;;;;;;;12.67;2.30;;;;;;;;;;5048761;28;20602;-66
2022/02/25 07:21:05;;;;;;;15.70;3.07;;;;;;;;;;5047034;28;20182;-66
2022/02/25 07:23:30;;;;;;;12.60;2.27;;;;;;;;;;5051241;28;20189;-66
2022/02/25 07:25:55;;;;;;;17.87;3.13;;;;;;;;;;5048395;28;20251;-66
2022/02/25 07:28:21;;;;;;;16.37;3.17;;;;;;;;;;5055140;28;20285;-66
2022/02/25 07:30:46;;;;;;;13.83;2.87;;;;;;;;;;5051432;28;20555;-66
2022/02/25 07:33:12;;;;;;;16.83;3.23;;;;;;;;;;5041700;28;20189;-66
2022/02/25 07:35:37;;;;;;;14.07;2.47;;;;;;;;;;5051057;28;20638;-67
2022/02/25 07:38:03;;;;;;;12.47;3.07;;;;;;;;;;5045358;28;20196;-67
2022/02/25 07:40:29;;;;;;;14.70;3.80;;;;;;;;;;5055945;28;20263;-67
2022/02/25 07:42:55;;;;;;;13.80;3.30;;;;;;;;;;5044815;28;20285;-67
2022/02/25 07:45:20;;;;;;;14.60;3.07;;;;;;;;;;5045752;28;20261;-67
2022/02/25 07:47:45;;;;;;;11.87;3.30;;;;;;;;;;5045494;28;20185;-67
2022/02/25 07:50:13;;;;;;;15.13;4.03;;;;;;;;;;5053675;28;20208;-67
2022/02/25 07:52:40;;;;;;;16.97;3.40;;;;;;;;;;5045459;28;20196;-67
2022/02/25 07:55:06;;;;;;;9.80;3.13;;;;;;;;;;5054965;28;20296;-67
2022/02/25 07:57:32;;;;;;;12.80;3.63;;;;;;;;;;5046206;28;20186;-67
2022/02/25 07:59:58;;;;;;;16.03;3.90;;;;;;;;;;5043310;28;20206;-67
2022/02/25 08:02:23;;;;;;;9.53;3.70;;;;;;;;;;5048052;28;20526;-67
2022/02/25 08:04:48;;;;;;;14.03;3.60;;;;;;;;;;5050670;28;20629;-67
2022/02/25 08:07:14;;;;;;;14.77;3.73;;;;;;;;;;5045588;28;20676;-66
2022/02/25 08:09:39;;;;;;;13.07;3.63;;;;;;;;;;5046369;28;20189;-66
2022/02/25 08:12:04;;;;;;;14.70;4.10;;;;;;;;;;5052288;28;20200;-67
2022/02/25 08:14:35;;;;;;;11.40;3.80;;;;;;;;;;5045679;28;20229;-67
2022/02/25 08:17:00;;;;;;;12.90;3.53;;;;;;;;;;5051468;28;20648;-67
2022/02/25 08:19:26;;;;;;;16.17;3.73;;;;;;;;;;5048887;28;20266;-67
2022/02/25 08:21:51;;;;;;;15.27;3.73;;;;;;;;;;5049401;28;20246;-67
2022/02/25 08:24:16;;;;;;;9.30;3.80;;;;;;;;;;5045451;28;20186;-67
2022/02/25 08:26:42;;;;;;;15.47;4.00;;;;;;;;;;5050677;28;20223;-67
2022/02/25 08:29:07;;;;;;;16.30;4.33;;;;;;;;;;5044913;28;20181;-67
2022/02/25 08:31:33;;;;;;;12.50;3.63;;;;;;;;;;5055421;28;20620;-67
2022/02/25 08:33:58;;;;;;;15.30;4.23;;;;;;;;;;5046369;28;20585;-66
2022/02/25 08:36:23;;;;;;;11.33;3.83;;;;;;;;;;5050068;28;21874;-67
2022/02/25 08:38:49;;;;;;;17.97;4.13;;;;;;;;;;5048296;28;20186;-67
2022/02/25 08:41:14;;;;;;;12.67;3.87;;;;;;;;;;5051210;28;20313;-67
2022/02/25 08:43:39;;;;;;;10.57;3.83;;;;;;;;;;5040154;28;20223;-67
2022/02/25 08:46:05;;;;;;;13.53;4.20;;;;;;;;;;5041719;28;20737;-67
2022/02/25 08:48:31;;;;;;;15.37;3.33;;;;;;;;;;5046600;28;20201;-67
2022/02/25 08:50:56;;;;;;;13.30;3.53;;;;;;;;;;5049056;28;20185;-67
2022/02/25 08:53:22;;;;;;;12.90;3.23;;;;;;;;;;5042657;28;20607;-68
2022/02/25 08:55:47;;;;;;;17.97;3.33;;;;;;;;;;5047235;28;20205;-67
2022/02/25 08:58:13;;;;;;;14.47;3.10;;;;;;;;;;5044643;28;20194;-67
2022/02/25 09:00:39;;;;;;;13.10;3.60;;;;;;;;;;5046180;28;20189;-67
2022/02/25 09:03:04;;;;;;;10.87;2.80;;;;;;;;;;5044452;28;20189;-67
2022/02/25 09:05:32;;;;;;;11.67;2.77;;;;;;;;;;5046183;28;20202;-67
2022/02/25 09:07:57;;;;;;;12.43;2.70;;;;;;;;;;5044873;28;20185;-66
2022/02/25 09:10:24;;;;;;;14.97;2.60;;;;;;;;;;5046040;28;20189;-67
2022/02/25 09:12:50;;;;;;;17.07;3.73;;;;;;;;;;5044662;28;20233;-67
2022/02/25 09:15:22;;;;;;;15.20;2.93;;;;;;;;;;5044664;28;20773;-67
2022/02/25 09:17:48;;;;;;;13.30;2.33;;;;;;;;;;5053480;28;20180;-66
2022/02/25 09:20:14;;;;;;;17.83;2.33;;;;;;;;;;5042462;28;20191;-67
2022/02/25 09:22:39;;;;;;;10.67;2.10;;;;;;;;;;5049524;28;20185;-67
2022/02/25 09:25:05;;;;;;;11.53;2.10;;;;;;;;;;5042671;28;20222;-66
2022/02/25 09:27:32;;;;;;;12.50;2.40;;;;;;;;;;5041959;28;20197;-67
2022/02/25 09:29:58;;;;;;;13.43;2.00;;;;;;;;;;5043097;28;20212;-66
2022/02/25 09:32:24;;;;;;;10.40;2.47;;;;;;;;;;5044203;28;20587;-66
2022/02/25 09:34:50;;;;;;;12.77;3.27;;;;;;;;;;5036032;28;20221;-67
2022/02/25 09:37:15;;;;;;;14.13;2.00;;;;;;;;;;5049127;28;20216;-67
2022/02/25 09:39:40;;;;;;;13.93;2.30;;;;;;;;;;5047053;28;20345;-67
2022/02/25 09:42:07;;;;;;;8.37;1.80;;;;;;;;;;5045324;28;20186;-67
2022/02/25 09:44:34;;;;;;;13.00;2.10;;;;;;;;;;5043951;28;20177;-67
2022/02/25 09:46:59;;;;;;;18.33;2.20;;;;;;;;;;5044755;28;20189;-67
2022/02/25 09:49:25;;;;;;;14.13;2.23;;;;;;;;;;5049450;28;20544;-67
2022/02/25 09:51:52;;;;;;;14.17;1.93;;;;;;;;;;5050687;28;20194;-66
2022/02/25 09:54:18;;;;;;;8.60;1.60;;;;;;;;;;5039510;28;20308;-65
2022/02/25 09:56:46;;;;;;;11.07;1.93;;;;;;;;;;5041035;28;20203;-67
2022/02/25 09:59:12;;;;;;;8.77;1.93;;;;;;;;;;5045915;28;20566;-66
2022/02/25 10:01:37;;;;;;;7.13;1.30;;;;;;;;;;5055252;28;20247;-66
2022/02/25 10:04:19;;;;;;;12.90;1.67;;;;;;;;;;5045439;28;20192;-66
2022/02/25 10:06:45;;;;;;;13.60;2.27;;;;;;;;;;5047299;28;20224;-68
2022/02/25 10:09:26;;;;;;;12.13;2.10;;;;;;;;;;5054641;28;20747;-66
2022/02/25 10:12:06;;;;;;;8.57;1.60;;;;;;;;;;5042049;28;20272;-67
2022/02/25 10:14:36;;;;;;;10.93;1.27;;;;;;;;;;5042146;28;20232;-67
2022/02/25 10:17:08;;;;;;;10.97;1.50;;;;;;;;;;5040885;28;20593;-68
2022/02/25 10:19:34;;;;;;;8.10;1.03;;;;;;;;;;5052478;28;20189;-69
2022/02/25 10:22:22;;;;;;;6.77;1.27;;;;;;;;;;5041982;28;20771;-70
2022/02/25 10:24:57;;;;;;;6.23;0.90;;;;;;;;;;5048300;28;20194;-70
2022/02/25 10:27:26;;;;;;;7.43;0.80;;;;;;;;;;5037695;28;20183;-75
2022/02/25 10:30:00;;;;;;;5.33;0.83;;;;;;;;;;5035429;28;20193;-75
2022/02/25 10:32:28;;;;;;;8.33;1.00;;;;;;;;;;5036390;28;20675;-76
2022/02/25 10:34:54;;;;;;;5.97;1.13;;;;;;;;;;5051266;28;20858;-75
2022/02/25 10:37:20;;;;;;;8.13;1.13;;;;;;;;;;5040344;28;20347;-74
2022/02/25 10:39:47;;;;;;;7.00;1.00;;;;;;;;;;5050857;28;20184;-75
2022/02/25 10:42:15;;;;;;;11.37;1.60;;;;;;;;;;5045102;28;20270;-76
2022/02/25 10:44:43;;;;;;;8.97;1.00;;;;;;;;;;5046138;28;20189;-75
2022/02/25 10:47:27;;;;;;;12.10;1.43;;;;;;;;;;5054919;28;20670;-75
2022/02/25 10:50:17;;;;;;;10.57;1.70;;;;;;;;;;5044091;28;20192;-74
2022/02/25 10:52:45;;;;;;;8.40;1.37;;;;;;;;;;5045570;28;20181;-73
2022/02/25 10:55:14;;;;;;;15.73;2.17;;;;;;;;;;5051968;28;20774;-73
2022/02/25 10:57:39;;;;;;;8.70;2.20;;;;;;;;;;5044042;28;20189;-73
2022/02/25 11:00:09;;;;;;;14.40;1.97;;;;;;;;;;5043921;28;20326;-73
2022/02/25 11:02:36;;;;;;;7.33;1.70;;;;;;;;;;5046299;28;20645;-74
2022/02/25 11:05:15;;;;;;;11.10;2.00;;;;;;;;;;5041057;28;20178;-74
2022/02/25 11:07:45;;;;;;;14.37;2.03;;;;;;;;;;5038900;28;20224;-73
2022/02/25 11:10:13;;;;;;;11.97;2.10;;;;;;;;;;5034706;28;20264;-74
2022/02/25 11:12:42;;;;;;;10.60;1.70;;;;;;;;;;5042446;28;20222;-74
2022/02/25 11:15:12;;;;;;;10.10;2.07;;;;;;;;;;5045667;28;20213;-72
2022/02/25 11:17:40;;;;;;;13.80;1.77;;;;;;;;;;5040317;28;20223;-72
2022/02/25 11:20:08;;;;;;;17.13;2.20;;;;;;;;;;5043903;28;20190;-71
2022/02/25 11:22:36;;;;;;;17.67;1.83;;;;;;;;;;5042626;28;20189;-71
2022/02/25 11:25:02;;;;;;;13.53;2.60;;;;;;;;;;5040683;28;20193;-70
2022/02/25 11:27:28;;;;;;;11.03;1.97;;;;;;;;;;5031726;28;20279;-72
2022/02/25 11:30:07;;;;;;;12.27;2.03;;;;;;;;;;5041587;28;20637;-70
2022/02/25 11:33:09;;;;;;;12.67;1.60;;;;;;;;;;5026853;28;20202;-71
2022/02/25 11:35:50;;;;;;;11.00;2.17;;;;;;;;;;5043797;28;20681;-70
2022/02/25 11:38:15;;;;;;;12.63;1.67;;;;;;;;;;5040765;28;20204;-70
2022/02/25 11:41:04;;;;;;;12.90;1.63;;;;;;;;;;5048396;28;20214;-70
2022/02/25 11:43:40;;;;;;;10.17;1.63;;;;;;;;;;5044935;28;20264;-70
2022/02/25 11:46:09;;;;;;;14.47;1.90;;;;;;;;;;5048306;28;20189;-70
2022/02/25 11:48:41;;;;;;;7.80;1.50;;;;;;;;;;5049116;28;20286;-69
2022/02/25 11:51:09;;;;;;;12.73;1.73;;;;;;;;;;5063423;28;20189;-68
2022/02/25 11:53:35;;;;;;;8.57;1.77;;;;;;;;;;5046725;28;21208;-68
2022/02/25 11:56:17;;;;;;;8.60;1.37;;;;;;;;;;5048805;28;20284;-68
2022/02/25 11:58:48;;;;;;;11.10;1.53;;;;;;;;;;5046631;28;20189;-67
2022/02/25 12:01:21;;;;;;;12.00;1.63;;;;;;;;;;5050324;28;20263;-68
2022/02/25 12:04:06;;;;;;;14.93;2.00;;;;;;;;;;5048929;28;20528;-68
2022/02/25 12:06:57;;;;;;;8.97;1.70;;;;;;;;;;5049942;28;20201;-67
2022/02/25 12:09:45;;;;;;;8.30;1.30;;;;;;;;;;5053589;28;20549;-68
2022/02/25 12:12:20;;;;;;;10.63;1.67;;;;;;;;;;5043747;28;20190;-67
2022/02/25 12:15:17;;;;;;;11.87;1.87;;;;;;;;;;5045245;28;20254;-67
2022/02/25 12:17:45;;;;;;;14.97;2.07;;;;;;;;;;5040346;28;20207;-67
2022/02/25 12:20:17;;;;;;;13.93;1.47;;;;;;;;;;5044502;28;20255;-67
2022/02/25 12:22:47;;;;;;;13.73;1.47;;;;;;;;;;5046498;28;20256;-67
2022/02/25 12:25:13;;;;;;;11.33;1.53;;;;;;;;;;5045176;28;20214;-67
2022/02/25 12:27:38;;;;;;;9.63;1.67;;;;;;;;;;5051353;28;20186;-68
2022/02/25 12:30:39;;;;;;;11.43;1.83;;;;;;;;;;5044535;28;20207;-68
2022/02/25 12:33:26;;;;;;;9.67;1.77;;;;;;;;;;5048307;28;20196;-68
2022/02/25 12:35:56;;;;;;;16.50;1.43;;;;;;;;;;5048692;28;20185;-68
2022/02/25 12:38:23;;;;;;;11.93;2.00;;;;;;;;;;5044974;28;20189;-68
2022/02/25 12:40:50;;;;;;;11.00;1.47;;;;;;;;;;5045684;28;20178;-69
2022/02/25 12:43:17;;;;;;;3.87;0.70;;;;;;;;;;5047026;28;20186;-70
2022/02/25 12:45:42;;;;;;;5.47;0.97;;;;;;;;;;5048100;28;20186;-72
2022/02/25 12:48:08;;;;;;;9.23;0.83;;;;;;;;;;5043439;28;20201;-72
2022/02/25 12:50:43;;;;;;;3.00;0.40;;;;;;;;;;5046076;28;20189;-73
2022/02/25 12:53:08;;;;;;;5.30;0.80;;;;;;;;;;5043020;28;20605;-71
2022/02/25 12:55:34;;;;;;;1.90;0.40;;;;;;;;;;5044134;28;20409;-70
2022/02/25 12:57:59;;;;;;;2.67;0.70;;;;;;;;;;5042498;28;20197;-71
2022/02/25 13:00:25;;;;;;;4.27;0.70;;;;;;;;;;5047322;28;20185;-70
2022/02/25 13:02:54;;;;;;;4.03;0.43;;;;;;;;;;5047134;28;20190;-71
2022/02/25 13:05:21;;;;;;;7.07;0.80;;;;;;;;;;5051346;28;20529;-70
2022/02/25 13:07:56;;;;;;;3.17;0.60;;;;;;;;;;5046464;28;20628;-69
2022/02/25 13:10:29;;;;;;;3.33;0.77;;;;;;;;;;5048275;28;20736;-69
2022/02/25 13:12:55;;;;;;;1.60;0.20;;;;;;;;;;5039808;28;20685;-69
2022/02/25 13:15:25;;;;;;;0.83;0.20;;;;;;;;;;5048466;28;20278;-67
2022/02/25 13:17:51;;;;;;;2.63;0.27;;;;;;;;;;5043031;28;20493;-68
2022/02/25 13:20:18;;;;;;;2.97;0.30;;;;;;;;;;5048623;28;20189;-68
2022/02/25 13:22:44;;;;;;;2.53;0.40;;;;;;;;;;5038721;28;20786;-68
2022/02/25 13:25:15;;;;;;;0.57;0.20;;;;;;;;;;5043766;28;20225;-67
2022/02/25 13:27:52;;;;;;;0.80;0.20;;;;;;;;;;5049140;28;20213;-67
2022/02/25 13:30:24;;;;;;;5.33;0.50;;;;;;;;;;5041729;28;20213;-67
2022/02/25 13:32:58;;;;;;;1.87;0.30;;;;;;;;;;5042726;28;20342;-68
2022/02/25 13:35:30;;;;;;;4.00;0.80;;;;;;;;;;5044663;28;20205;-68
2022/02/25 13:38:05;;;;;;;3.13;0.40;;;;;;;;;;5048407;28;20189;-67
2022/02/25 13:40:54;;;;;;;3.37;0.43;;;;;;;;;;5044294;28;20547;-67
2022/02/25 13:43:27;;;;;;;3.70;0.40;;;;;;;;;;5040276;28;20190;-68
2022/02/25 13:46:16;;;;;;;3.70;0.60;;;;;;;;;;5037185;28;20518;-67
2022/02/25 13:54:18;;;;;;;6.00;0.93;;;;;;;;;;5044232;28;20212;-67
2022/02/25 13:56:48;;;;;;;3.70;0.47;;;;;;;;;;5043564;28;20324;-67
2022/02/25 13:59:42;;;;;;;4.70;0.67;;;;;;;;;;5044299;28;20542;-67
2022/02/25 14:02:13;;;;;;;4.87;0.73;;;;;;;;;;5038934;28;20201;-67
2022/02/25 14:04:40;;;;;;;5.60;0.63;;;;;;;;;;5054102;28;20527;-67
2022/02/25 14:07:07;;;;;;;6.10;0.60;;;;;;;;;;5046722;28;20194;-67
2022/02/25 14:09:37;;;;;;;6.13;0.60;;;;;;;;;;5052099;28;20204;-67
2022/02/25 14:12:08;;;;;;;7.70;0.97;;;;;;;;;;5041849;28;20197;-67
2022/02/25 14:14:41;;;;;;;5.70;0.90;;;;;;;;;;5044913;28;20374;-67
2022/02/25 14:17:17;;;;;;;4.43;0.90;;;;;;;;;;5047459;28;20275;-67
2022/02/25 14:20:03;;;;;;;5.43;0.90;;;;;;;;;;5054578;28;20205;-66
2022/02/25 14:22:38;;;;;;;8.57;1.00;;;;;;;;;;5040418;28;20185;-67
2022/02/25 14:25:17;;;;;;;5.17;1.20;;;;;;;;;;5045736;28;20211;-67
2022/02/25 14:28:05;;;;;;;5.93;1.03;;;;;;;;;;5042931;28;20235;-67
2022/02/25 14:30:35;;;;;;;6.93;1.00;;;;;;;;;;5046502;28;20225;-67
2022/02/25 14:33:10;;;;;;;10.10;1.30;;;;;;;;;;5050639;28;20717;-67
2022/02/25 14:35:37;;;;;;;7.90;1.53;;;;;;;;;;5046831;28;20220;-67
2022/02/25 14:38:03;;;;;;;5.73;1.10;;;;;;;;;;5052041;28;20191;-66
2022/02/25 14:40:29;;;;;;;12.37;1.60;;;;;;;;;;5049302;28;20540;-67
2022/02/25 14:42:56;;;;;;;5.60;0.80;;;;;;;;;;5050460;28;20231;-65
2022/02/25 14:45:23;;;;;;;5.57;0.63;;;;;;;;;;5051374;28;20216;-67
2022/02/25 14:47:48;;;;;;;6.00;0.40;;;;;;;;;;5054049;28;20185;-67
2022/02/25 14:50:15;;;;;;;6.60;0.77;;;;;;;;;;5047594;28;20202;-69